Time;durP1;ratioP1;P1;durP2;ratioP2;P2;SDS_P1;SDS_P2;PMS_P1;PMS_P2;Temp;Humidity;BMP_temperature;BMP_pressure;BME280_temperature;BME280_humidity;BME280_pressure;Samples;Min_cycle;Max_cycle;Signal;HPM_P1;HPM_P2
2023/05/21 00:00:52;;;;;;;9.55;4.22;;;14.90;99.90;;;;;;4897273;29;20063;-87
2023/05/21 00:03:27;;;;;;;8.68;3.97;;;14.30;99.90;;;;;;4896233;29;20056;-87
2023/05/21 00:06:02;;;;;;;9.57;4.15;;;14.40;99.90;;;;;;4897843;29;20040;-86
2023/05/21 00:08:32;;;;;;;9.85;4.25;;;14.40;99.90;;;;;;4897737;29;20123;-88
2023/05/21 00:11:17;;;;;;;8.90;3.90;;;15.10;99.90;;;;;;4896014;29;20052;-87
2023/05/21 00:14:01;;;;;;;;;;;14.30;99.90;;;;;;4897367;29;20481;-87
2023/05/21 00:16:45;;;;;;;9.57;4.25;;;14.30;99.90;;;;;;4897770;29;19932;-88
2023/05/21 00:19:12;;;;;;;10.02;4.28;;;14.20;99.90;;;;;;4895833;29;20060;-87
2023/05/21 00:21:49;;;;;;;9.88;4.18;;;14.50;99.90;;;;;;4897064;29;20052;-87
2023/05/21 00:24:15;;;;;;;10.77;4.10;;;14.60;99.90;;;;;;4897233;29;20045;-87
2023/05/21 00:26:58;;;;;;;10.30;4.35;;;14.30;99.90;;;;;;4897273;29;20171;-87
2023/05/21 00:29:25;;;;;;;10.13;4.18;;;14.90;99.90;;;;;;4896874;29;20508;-87
2023/05/21 00:32:06;;;;;;;11.35;4.32;;;14.80;99.90;;;;;;4897009;29;20052;-87
2023/05/21 00:34:41;;;;;;;10.18;4.20;;;14.10;99.90;;;;;;4898234;29;20049;-86
2023/05/21 00:37:08;;;;;;;9.60;4.18;;;14.20;99.90;;;;;;4897648;29;20072;-87
2023/05/21 00:39:46;;;;;;;9.30;4.00;;;14.10;99.90;;;;;;4895822;29;20052;-87
2023/05/21 00:42:30;;;;;;;10.73;4.53;;;14.50;99.90;;;;;;4897467;29;20048;-89
2023/05/21 00:45:02;;;;;;;10.35;4.50;;;15.10;99.90;;;;;;4898038;29;20059;-87
2023/05/21 00:47:28;;;;;;;9.60;4.40;;;14.00;99.90;;;;;;4895555;29;20079;-87
2023/05/21 00:49:54;;;;;;;9.57;4.53;;;15.10;99.90;;;;;;4896442;29;20777;-87
2023/05/21 00:52:20;;;;;;;10.95;4.80;;;14.00;99.90;;;;;;4895999;29;20141;-87
2023/05/21 00:55:07;;;;;;;12.05;5.03;;;14.00;99.90;;;;;;4895433;29;20052;-86
2023/05/21 00:57:35;;;;;;;9.98;4.40;;;14.00;99.90;;;;;;4895643;29;20056;-87
2023/05/21 01:00:03;;;;;;;9.85;4.57;;;14.00;99.90;;;;;;4899281;29;20083;-87
2023/05/21 01:02:33;;;;;;;10.57;4.95;;;14.00;99.90;;;;;;4899550;29;20044;-87
2023/05/21 01:05:05;;;;;;;11.40;4.90;;;14.00;99.90;;;;;;4900929;29;20052;-87
2023/05/21 01:07:43;;;;;;;10.30;4.47;;;14.00;99.90;;;;;;4899186;29;20172;-87
2023/05/21 01:10:10;;;;;;;9.15;4.35;;;14.00;99.90;;;;;;4899285;29;20193;-87
2023/05/21 01:12:42;;;;;;;9.27;4.53;;;14.00;99.90;;;;;;4901144;29;20120;-87
2023/05/21 01:15:09;;;;;;;10.52;4.50;;;14.00;99.90;;;;;;4898633;29;20044;-87
2023/05/21 01:17:44;;;;;;;10.15;4.55;;;14.00;99.90;;;;;;4901226;29;20112;-87
2023/05/21 01:20:27;;;;;;;11.57;4.40;;;14.00;99.90;;;;;;4899805;29;20353;-88
2023/05/21 01:22:54;;;;;;;9.65;4.50;;;13.60;99.90;;;;;;4899947;29;20100;-87
2023/05/21 01:25:23;;;;;;;9.65;4.57;;;14.50;99.90;;;;;;4898647;29;20049;-87
2023/05/21 01:27:50;;;;;;;9.50;4.38;;;14.00;99.90;;;;;;4899103;29;20040;-87
2023/05/21 01:30:21;;;;;;;10.25;4.88;;;14.60;99.90;;;;;;4898133;29;20053;-87
2023/05/21 01:33:30;;;;;;;10.98;4.82;;;14.00;99.90;;;;;;4899175;29;20523;-87
2023/05/21 01:36:04;;;;;;;10.20;4.65;;;13.80;99.90;;;;;;4880184;29;20061;-88
2023/05/21 01:38:36;;;;;;;12.93;5.10;;;13.90;99.90;;;;;;4882285;29;20067;-87
2023/05/21 01:41:11;;;;;;;11.63;4.85;;;13.90;99.90;;;;;;4899138;29;20064;-87
2023/05/21 01:43:40;;;;;;;10.27;5.28;;;14.50;99.90;;;;;;4899559;29;20048;-87
2023/05/21 01:46:22;;;;;;;10.15;4.85;;;13.80;99.90;;;;;;4899023;29;20059;-87
2023/05/21 01:49:05;;;;;;;11.57;5.05;;;13.80;99.90;;;;;;4900293;29;20056;-87
2023/05/21 01:51:31;;;;;;;12.05;4.82;;;14.50;99.90;;;;;;4899581;29;20057;-87
2023/05/21 01:54:15;;;;;;;10.02;4.78;;;14.30;99.90;;;;;;4900227;29;20052;-88
2023/05/21 01:56:40;;;;;;;12.48;5.00;;;14.30;99.90;;;;;;4899389;29;20516;-87
2023/05/21 01:59:24;;;;;;;10.55;4.68;;;13.70;99.90;;;;;;4898621;29;20052;-87
2023/05/21 02:01:49;;;;;;;14.80;5.45;;;13.60;99.90;;;;;;4898941;29;20060;-87
2023/05/21 02:04:41;;;;;;;12.27;5.07;;;13.70;99.90;;;;;;4896290;29;20072;-87
2023/05/21 02:07:07;;;;;;;10.23;5.32;;;13.90;99.90;;;;;;4912988;29;20048;-87
2023/05/21 02:09:48;;;;;;;12.48;5.10;;;14.50;99.90;;;;;;4897792;29;20056;-88
2023/05/21 02:12:13;;;;;;;12.13;5.53;;;13.50;99.90;;;;;;4897887;29;20052;-87
2023/05/21 02:14:58;;;;;;;13.27;5.45;;;14.60;99.90;;;;;;4899956;29;20049;-87
2023/05/21 02:17:24;;;;;;;11.57;5.47;;;14.60;99.90;;;;;;4899731;29;20049;-87
2023/05/21 02:20:12;;;;;;;10.82;5.05;;;13.50;99.90;;;;;;4898399;29;20049;-86
2023/05/21 02:22:53;;;;;;;11.40;5.55;;;13.40;99.90;;;;;;4899757;29;20045;-88
2023/05/21 02:25:18;;;;;;;11.65;5.18;;;14.20;99.90;;;;;;4913038;29;20135;-88
2023/05/21 02:28:03;;;;;;;11.55;5.70;;;14.00;99.90;;;;;;4898266;29;20128;-88
2023/05/21 02:30:28;;;;;;;11.63;5.30;;;13.40;99.90;;;;;;4899201;29;20404;-87
2023/05/21 02:33:13;;;;;;;10.77;5.40;;;14.10;99.90;;;;;;4913548;29;20136;-88
2023/05/21 02:35:38;;;;;;;;;;;13.50;99.90;;;;;;4899823;29;20048;-87
2023/05/21 02:38:21;;;;;;;12.38;5.45;;;14.30;99.90;;;;;;4898478;29;20273;-88
2023/05/21 02:40:49;;;;;;;11.05;5.35;;;14.00;99.90;;;;;;4897465;29;20131;-87
2023/05/21 02:43:27;;;;;;;14.18;5.65;;;14.10;99.90;;;;;;4899109;29;20052;-87
2023/05/21 02:45:52;;;;;;;11.50;5.57;;;13.20;99.90;;;;;;4897217;29;20052;-88
2023/05/21 02:48:36;;;;;;;12.35;5.40;;;13.60;99.90;;;;;;4897631;29;20044;-88
2023/05/21 02:51:01;;;;;;;11.30;5.90;;;14.30;99.90;;;;;;4897701;29;20052;-88
2023/05/21 02:53:47;;;;;;;10.95;5.65;;;13.20;99.90;;;;;;4898078;29;20281;-88
2023/05/21 02:56:13;;;;;;;12.20;5.60;;;14.20;99.90;;;;;;4897442;29;20044;-88
2023/05/21 02:58:51;;;;;;;12.10;5.82;;;14.20;99.90;;;;;;4897960;29;20052;-88
2023/05/21 03:01:17;;;;;;;10.25;5.30;;;13.70;99.90;;;;;;4898177;29;20045;-88
2023/05/21 03:04:01;;;;;;;12.13;5.80;;;13.20;99.90;;;;;;4897973;29;20079;-88
2023/05/21 03:06:27;;;;;;;;;;;13.20;99.90;;;;;;4919433;29;20052;-87
2023/05/21 03:08:52;;;;;;;12.20;5.55;;;12.70;99.90;;;;;;4898122;29;20011;-87
2023/05/21 03:11:41;;;;;;;13.20;5.68;;;13.10;99.90;;;;;;4898383;29;20059;-88
2023/05/21 03:14:08;;;;;;;12.80;6.28;;;12.60;99.90;;;;;;4896990;29;20060;-88
2023/05/21 03:16:34;;;;;;;12.40;5.43;;;13.10;99.90;;;;;;4898786;29;20044;-88
2023/05/21 03:19:19;;;;;;;12.20;6.13;;;13.70;99.90;;;;;;4897667;29;20092;-88
2023/05/21 03:21:45;;;;;;;12.65;6.28;;;14.20;99.90;;;;;;4896430;29;20497;-89
2023/05/21 03:24:28;;;;;;;13.73;5.75;;;13.00;99.90;;;;;;4897523;29;20465;-88
2023/05/21 03:26:53;;;;;;;17.17;6.05;;;12.90;99.90;;;;;;4913310;29;20060;-88
2023/05/21 03:33:56;;;;;;;11.88;6.15;;;13.10;99.90;;;;;;4898272;29;20089;-88
2023/05/21 03:36:39;;;;;;;18.23;7.35;;;12.70;99.90;;;;;;4911609;29;20084;-88
2023/05/21 03:39:05;;;;;;;11.77;6.07;;;13.00;99.90;;;;;;4912967;29;20417;-87
2023/05/21 03:41:44;;;;;;;11.55;5.43;;;14.10;99.90;;;;;;4896891;29;20049;-88
2023/05/21 03:44:10;;;;;;;13.25;6.18;;;13.60;99.90;;;;;;4896595;29;20519;-88
2023/05/21 03:46:50;;;;;;;15.77;6.10;;;13.20;99.90;;;;;;4898089;29;20127;-87
2023/05/21 03:49:16;;;;;;;12.55;6.30;;;13.20;99.90;;;;;;4911874;29;20053;-89
2023/05/21 03:51:47;;;;;;;13.27;5.97;;;14.20;99.90;;;;;;4876561;23;20134;-88
2023/05/21 03:54:13;;;;;;;12.00;6.40;;;13.10;99.90;;;;;;4859555;29;20050;-88
2023/05/21 03:59:28;;;;;;;11.93;6.18;;;13.10;99.90;;;;;;4840533;29;20058;-88
2023/05/21 04:01:53;;;;;;;13.35;6.38;;;13.00;99.90;;;;;;4833955;29;20042;-87
2023/05/21 04:04:44;;;;;;;13.80;6.50;;;13.60;99.90;;;;;;4863454;23;20048;-88
2023/05/21 04:07:21;;;;;;;13.52;6.00;;;13.00;99.90;;;;;;4877165;29;20489;-88
2023/05/21 04:10:06;;;;;;;15.05;6.45;;;13.00;99.90;;;;;;4879549;29;20056;-87
2023/05/21 04:12:31;;;;;;;13.88;6.00;;;13.00;99.90;;;;;;4878338;29;20045;-87
2023/05/21 04:15:03;;;;;;;12.50;6.15;;;13.00;99.90;;;;;;4878165;29;20045;-87
2023/05/21 04:20:16;;;;;;;14.52;6.60;;;12.50;99.90;;;;;;4904099;23;20057;-87
2023/05/21 04:22:48;;;;;;;12.95;6.13;;;13.00;99.90;;;;;;4897620;29;20052;-87
2023/05/21 04:25:16;;;;;;;15.18;6.50;;;13.00;99.90;;;;;;4896886;29;20108;-87
2023/05/21 04:27:54;;;;;;;12.60;6.07;;;12.90;99.90;;;;;;4898592;29;20049;-87
2023/05/21 04:30:26;;;;;;;12.32;6.28;;;13.00;99.90;;;;;;4897174;29;20055;-87
2023/05/21 04:32:53;;;;;;;12.95;6.30;;;14.30;99.90;;;;;;4895965;29;20053;-88
2023/05/21 04:35:26;;;;;;;11.68;6.00;;;13.50;99.90;;;;;;4907744;23;20104;-88
2023/05/21 04:37:53;;;;;;;12.85;6.30;;;14.20;99.90;;;;;;4900989;29;20488;-88
2023/05/21 04:40:23;;;;;;;12.00;6.03;;;13.50;99.90;;;;;;4899753;29;20051;-87
2023/05/21 04:42:49;;;;;;;12.38;5.68;;;13.30;99.90;;;;;;4900254;29;20561;-88
2023/05/21 04:45:24;;;;;;;12.60;6.18;;;13.70;99.90;;;;;;4899192;29;20040;-87
2023/05/21 04:47:59;;;;;;;11.00;5.75;;;13.00;99.90;;;;;;4900244;29;20414;-88
2023/05/21 04:50:25;;;;;;;13.02;5.57;;;13.60;99.90;;;;;;4899836;29;20128;-87
2023/05/21 04:52:53;;;;;;;12.07;5.70;;;13.90;99.90;;;;;;4900204;29;20523;-87
2023/05/21 04:55:52;;;;;;;15.25;5.63;;;13.10;99.90;;;;;;4900629;29;20124;-87
2023/05/21 04:58:57;;;;;;;12.90;5.80;;;14.20;99.90;;;;;;4900040;29;20052;-88
2023/05/21 05:01:24;;;;;;;13.43;5.80;;;13.20;99.90;;;;;;4899969;29;20080;-88
2023/05/21 05:04:08;;;;;;;13.27;5.78;;;13.10;99.90;;;;;;4900223;29;20056;-87
2023/05/21 05:06:34;;;;;;;11.45;5.63;;;13.20;99.90;;;;;;4900180;29;20453;-88
2023/05/21 05:09:12;;;;;;;13.98;5.60;;;13.20;99.90;;;;;;4900955;29;20157;-87
2023/05/21 05:11:38;;;;;;;15.23;6.07;;;13.20;99.90;;;;;;4901135;29;20037;-87
2023/05/21 05:14:18;;;;;;;12.20;5.43;;;13.70;99.90;;;;;;4899327;29;20071;-87
2023/05/21 05:16:47;;;;;;;11.65;5.40;;;13.40;99.90;;;;;;4899551;29;20409;-87
2023/05/21 05:19:18;;;;;;;11.07;5.05;;;13.40;99.90;;;;;;4901225;29;20047;-87
2023/05/21 05:21:44;;;;;;;11.68;5.43;;;14.00;99.90;;;;;;4899908;29;20060;-88
2023/05/21 05:24:09;;;;;;;13.15;5.82;;;14.20;99.90;;;;;;4900550;29;20560;-89
2023/05/21 05:26:53;;;;;;;11.40;5.18;;;14.30;99.90;;;;;;4901396;29;20047;-85
2023/05/21 05:29:19;;;;;;;13.40;5.30;;;13.90;99.90;;;;;;4898274;29;20131;-85
2023/05/21 05:31:45;;;;;;;13.05;5.07;;;13.40;99.90;;;;;;4899377;29;20104;-83
2023/05/21 05:34:13;;;;;;;11.63;5.13;;;13.40;99.90;;;;;;4900353;29;20120;-84
2023/05/21 05:36:39;;;;;;;11.40;4.90;;;13.30;99.90;;;;;;4898618;29;20068;-85
2023/05/21 05:39:30;;;;;;;12.63;4.93;;;14.40;99.90;;;;;;4899235;29;20052;-84
2023/05/21 05:42:02;;;;;;;12.48;5.10;;;13.40;99.90;;;;;;4898562;29;20052;-83
2023/05/21 05:44:27;;;;;;;12.02;5.18;;;13.50;99.90;;;;;;4899897;29;20083;-83
2023/05/21 05:46:53;;;;;;;11.55;5.35;;;13.50;99.90;;;;;;4899155;29;20087;-84
2023/05/21 05:49:19;;;;;;;11.00;5.10;;;14.00;99.90;;;;;;4899435;29;20048;-84
2023/05/21 05:52:04;;;;;;;12.95;5.18;;;13.50;99.90;;;;;;4899391;29;20060;-84
2023/05/21 05:54:35;;;;;;;11.85;5.18;;;13.50;99.90;;;;;;4900227;29;20064;-85
2023/05/21 05:57:23;;;;;;;10.25;4.88;;;13.90;99.90;;;;;;4899604;29;20454;-86
2023/05/21 06:00:05;;;;;;;11.88;4.75;;;14.70;99.90;;;;;;4899327;29;20049;-85
2023/05/21 06:02:49;;;;;;;12.57;5.15;;;13.60;99.90;;;;;;4898792;29;20048;-86
2023/05/21 06:05:15;;;;;;;10.95;4.93;;;14.70;99.90;;;;;;4898591;29;20119;-84
2023/05/21 06:10:44;;;;;;;10.23;4.80;;;14.50;99.90;;;;;;4896759;29;20404;-83
2023/05/21 06:13:10;;;;;;;10.20;4.47;;;14.10;99.90;;;;;;4892129;29;20044;-82
2023/05/21 06:15:38;;;;;;;10.55;4.32;;;13.70;99.90;;;;;;4898291;29;20053;-82
2023/05/21 06:18:08;;;;;;;14.60;4.78;;;14.00;99.90;;;;;;4897123;29;20044;-83
2023/05/21 06:20:43;;;;;;;11.43;4.38;;;13.80;99.90;;;;;;4899384;29;20057;-82
2023/05/21 06:23:09;;;;;;;10.93;4.78;;;13.80;99.90;;;;;;4897585;29;20044;-82
2023/05/21 06:25:34;;;;;;;12.80;4.43;;;14.60;99.90;;;;;;4898158;29;20097;-82
2023/05/21 06:28:10;;;;;;;11.52;4.40;;;14.60;99.90;;;;;;4897868;29;20044;-82
2023/05/21 06:30:36;;;;;;;9.50;4.35;;;14.00;99.90;;;;;;4897982;29;20053;-82
2023/05/21 06:33:11;;;;;;;12.10;4.60;;;14.80;99.90;;;;;;4896887;29;20077;-82
2023/05/21 06:35:38;;;;;;;12.27;4.90;;;14.70;99.90;;;;;;4897663;29;20089;-82
2023/05/21 06:38:04;;;;;;;10.15;4.28;;;14.20;99.90;;;;;;4897597;29;20052;-83
2023/05/21 06:40:30;;;;;;;10.70;4.75;;;14.50;99.90;;;;;;4897421;29;20580;-82
2023/05/21 06:42:56;;;;;;;9.65;4.50;;;14.90;99.90;;;;;;4898976;29;20040;-82
2023/05/21 06:45:22;;;;;;;10.32;4.45;;;14.30;99.90;;;;;;4897385;29;20045;-83
2023/05/21 06:47:47;;;;;;;10.90;4.43;;;14.30;99.90;;;;;;4897787;29;20053;-85
2023/05/21 06:50:13;;;;;;;13.38;5.15;;;14.90;99.90;;;;;;4898009;29;20064;-85
2023/05/21 06:52:39;;;;;;;10.45;4.40;;;14.30;99.90;;;;;;4899087;29;20040;-83
2023/05/21 06:55:05;;;;;;;11.38;4.53;;;14.30;99.90;;;;;;4891009;29;20580;-83
2023/05/21 06:57:31;;;;;;;11.45;4.68;;;14.40;99.90;;;;;;4889877;29;20100;-83
2023/05/21 06:59:59;;;;;;;9.85;4.43;;;15.20;99.90;;;;;;4890779;29;20037;-84
2023/05/21 07:02:25;;;;;;;10.48;4.63;;;14.60;99.90;;;;;;4899092;29;20048;-84
2023/05/21 07:04:52;;;;;;;11.90;4.50;;;15.20;99.90;;;;;;4899724;29;20044;-86
2023/05/21 07:07:28;;;;;;;10.43;4.90;;;14.80;99.90;;;;;;4897603;29;20064;-87
2023/05/21 07:10:07;;;;;;;10.95;4.38;;;14.60;99.90;;;;;;4887519;29;20127;-86
2023/05/21 07:12:33;;;;;;;10.70;4.50;;;14.70;99.90;;;;;;4880734;29;20127;-87
2023/05/21 07:14:58;;;;;;;10.88;4.72;;;14.80;99.90;;;;;;4883878;29;20169;-83
2023/05/21 07:17:39;;;;;;;11.25;5.32;;;15.70;99.90;;;;;;4892420;23;20607;-83
2023/05/21 07:20:06;;;;;;;10.57;4.50;;;14.70;99.90;;;;;;4878425;29;20075;-83
2023/05/21 07:22:37;;;;;;;11.23;4.43;;;14.80;99.90;;;;;;4879611;29;20057;-83
2023/05/21 07:25:03;;;;;;;13.63;5.05;;;16.00;99.90;;;;;;4879566;29;20040;-82
2023/05/21 07:27:41;;;;;;;10.75;4.97;;;14.90;99.90;;;;;;4875773;29;20108;-83
2023/05/21 07:30:08;;;;;;;10.38;4.60;;;14.70;99.90;;;;;;4878105;29;20508;-83
2023/05/21 07:32:34;;;;;;;11.68;4.72;;;15.10;99.90;;;;;;4876763;23;20069;-84
2023/05/21 07:35:02;;;;;;;11.55;4.90;;;15.80;99.90;;;;;;4860008;29;20501;-85
2023/05/21 07:37:37;;;;;;;10.90;4.63;;;15.00;99.90;;;;;;4858340;29;20045;-84
2023/05/21 07:40:12;;;;;;;12.50;4.60;;;15.90;99.90;;;;;;4859098;29;20041;-85
2023/05/21 07:42:38;;;;;;;11.82;4.53;;;15.00;99.90;;;;;;4858523;29;20049;-84
2023/05/21 07:45:19;;;;;;;10.60;4.63;;;16.20;99.90;;;;;;4861083;29;20113;-85
2023/05/21 07:48:03;;;;;;;10.70;4.93;;;15.50;99.90;;;;;;4858794;29;20049;-86
2023/05/21 07:50:30;;;;;;;;;;;15.50;99.90;;;;;;4874171;29;20062;-85
2023/05/21 07:53:01;;;;;;;10.52;4.47;;;16.10;99.90;;;;;;4858685;29;19920;-85
2023/05/21 07:55:35;;;;;;;11.57;5.15;;;16.30;99.90;;;;;;4859053;29;20523;-85
2023/05/21 07:58:17;;;;;;;14.98;4.63;;;15.90;99.90;;;;;;4858701;29;20052;-85
2023/05/21 08:00:45;;;;;;;11.15;4.60;;;16.00;99.90;;;;;;4858546;29;20091;-85
2023/05/21 08:03:32;;;;;;;9.95;4.75;;;16.30;99.90;;;;;;4858716;29;20041;-86
2023/05/21 08:05:58;;;;;;;14.02;5.13;;;16.00;99.90;;;;;;4858377;29;20405;-85
2023/05/21 08:08:41;;;;;;;12.20;5.00;;;16.10;99.90;;;;;;4857072;29;20124;-86
2023/05/21 08:11:13;;;;;;;;;;;16.80;99.90;;;;;;4857624;29;20057;-86
2023/05/21 08:13:39;;;;;;;10.93;4.43;;;16.10;99.90;;;;;;4854880;23;1147504;-86
2023/05/21 08:16:05;;;;;;;11.77;4.90;;;17.20;99.90;;;;;;4896112;29;20056;-85
2023/05/21 08:18:31;;;;;;;10.95;4.68;;;16.40;99.90;;;;;;4895307;29;20568;-86
2023/05/21 08:24:40;;;;;;;11.50;5.50;;;16.50;99.90;;;;;;4896492;29;20111;-86
2023/05/21 08:27:18;;;;;;;12.98;4.88;;;17.50;99.90;;;;;;4895884;29;20061;-85
2023/05/21 08:29:43;;;;;;;10.35;4.63;;;16.80;99.90;;;;;;4936934;23;20441;-86
2023/05/21 08:32:21;;;;;;;12.82;5.82;;;16.90;99.90;;;;;;4859296;29;20053;-86
2023/05/21 08:35:07;;;;;;;10.43;5.00;;;17.00;99.90;;;;;;4874180;29;20070;-85
2023/05/21 08:37:42;;;;;;;13.80;5.25;;;17.30;99.90;;;;;;4839583;29;20482;-86
2023/05/21 08:40:11;;;;;;;12.68;5.43;;;17.70;99.90;;;;;;4847426;29;20077;-85
2023/05/21 08:42:50;;;;;;;9.95;5.13;;;18.00;99.90;;;;;;4859868;29;20057;-84
2023/05/21 08:45:36;;;;;;;11.98;5.18;;;18.10;99.90;;;;;;4857787;29;20048;-85
2023/05/21 08:48:21;;;;;;;10.85;5.57;;;18.30;99.90;;;;;;4858899;29;20457;-85
2023/05/21 08:51:01;;;;;;;12.25;5.70;;;18.10;99.90;;;;;;4858509;29;20523;-85
2023/05/21 08:53:27;;;;;;;12.35;6.03;;;19.30;99.90;;;;;;4859102;29;20041;-86
2023/05/21 08:56:02;;;;;;;11.80;5.72;;;18.50;99.90;;;;;;4874194;29;20490;-85
2023/05/21 08:58:31;;;;;;;14.48;6.03;;;18.60;99.90;;;;;;4857488;29;20087;-85
2023/05/21 09:01:10;;;;;;;12.25;5.57;;;18.60;99.90;;;;;;4858328;29;20485;-85
2023/05/21 09:03:39;;;;;;;13.98;6.22;;;18.50;99.90;;;;;;4874371;29;20551;-85
2023/05/21 09:06:56;;;;;;;11.52;5.85;;;18.60;99.90;;;;;;4945217;23;20048;-86
2023/05/21 09:10:09;;;;;;;11.32;5.93;;;19.00;99.90;;;;;;4895130;29;20255;-85
2023/05/21 09:12:55;;;;;;;12.45;5.72;;;19.00;99.90;;;;;;4895039;29;20059;-85
2023/05/21 09:15:29;;;;;;;11.90;5.78;;;19.00;99.90;;;;;;4896067;29;20070;-85
2023/05/21 09:17:58;;;;;;;11.77;5.53;;;18.90;99.90;;;;;;4895810;29;20049;-85
2023/05/21 09:20:32;;;;;;;12.20;5.75;;;19.60;99.90;;;;;;4897949;29;20052;-85
2023/05/21 09:23:02;;;;;;;11.32;6.18;;;19.40;99.90;;;;;;4900266;29;20575;-85
2023/05/21 09:25:28;;;;;;;11.25;5.80;;;19.30;99.90;;;;;;4899393;29;20135;-85
2023/05/21 09:28:02;;;;;;;11.75;5.90;;;19.20;99.90;;;;;;4900016;29;20135;-85
2023/05/21 09:30:48;;;;;;;12.25;6.38;;;20.00;99.90;;;;;;4899776;29;20493;-84
2023/05/21 09:33:30;;;;;;;12.25;6.10;;;19.20;99.90;;;;;;4899492;29;20057;-84
2023/05/21 09:35:56;;;;;;;13.35;6.40;;;19.20;99.90;;;;;;4900525;29;20186;-85
2023/05/21 09:38:36;;;;;;;13.48;7.13;;;19.30;99.90;;;;;;4898566;29;20072;-84
2023/05/21 09:41:09;;;;;;;11.70;6.93;;;19.30;99.90;;;;;;4898601;29;20388;-84
2023/05/21 09:43:36;;;;;;;12.90;6.60;;;19.20;99.90;;;;;;4900463;29;20088;-84
2023/05/21 09:46:04;;;;;;;12.55;6.80;;;19.30;99.90;;;;;;4899435;29;20112;-85
2023/05/21 09:48:33;;;;;;;15.38;6.90;;;19.40;99.90;;;;;;4898180;29;20053;-85
2023/05/21 09:51:28;;;;;;;12.20;7.15;;;19.30;99.90;;;;;;4900748;29;20070;-84
2023/05/21 09:54:03;;;;;;;13.57;7.60;;;19.40;99.90;;;;;;4899225;29;20033;-84
2023/05/21 09:56:30;;;;;;;14.38;7.10;;;19.40;99.90;;;;;;4899635;29;20084;-85
2023/05/21 09:59:00;;;;;;;13.40;6.60;;;19.40;99.90;;;;;;4900070;29;20045;-85
2023/05/21 10:01:44;;;;;;;15.10;7.50;;;19.60;99.90;;;;;;4899382;29;20330;-85
2023/05/21 10:04:20;;;;;;;14.68;7.80;;;19.70;99.90;;;;;;4897552;29;20083;-85
2023/05/21 10:09:37;;;;;;;14.57;8.05;;;20.10;99.90;;;;;;4879055;29;20079;-85
2023/05/21 10:12:09;;;;;;;13.63;7.53;;;20.20;99.90;;;;;;4880447;29;20485;-85
2023/05/21 10:14:36;;;;;;;13.90;7.63;;;20.30;99.90;;;;;;4880548;29;20578;-85
2023/05/21 10:17:06;;;;;;;14.30;7.90;;;20.40;99.90;;;;;;4879254;29;20110;-85
2023/05/21 10:19:40;;;;;;;15.05;8.70;;;20.50;99.90;;;;;;4879555;29;20504;-85
2023/05/21 10:22:17;;;;;;;14.55;8.93;;;20.60;99.90;;;;;;4880103;29;20064;-86
2023/05/21 10:24:46;;;;;;;15.75;8.70;;;20.40;99.90;;;;;;4879046;29;20082;-86
2023/05/21 10:27:25;;;;;;;15.45;8.82;;;20.50;99.90;;;;;;4880399;29;20075;-86
2023/05/21 10:30:00;;;;;;;14.95;8.60;;;20.60;99.90;;;;;;4880521;29;20080;-85
2023/05/21 10:32:34;;;;;;;15.73;9.32;;;20.80;99.90;;;;;;4879494;29;20517;-84
2023/05/21 10:38:35;;;;;;;16.88;8.93;;;21.10;99.90;;;;;;4859130;29;20044;-84
2023/05/21 10:41:03;;;;;;;13.65;8.88;;;21.80;99.90;;;;;;4863092;29;20069;-83
2023/05/21 10:44:08;;;;;;;16.13;9.88;;;21.90;99.90;;;;;;4878667;29;20056;-85
2023/05/21 10:47:18;;;;;;;14.98;9.77;;;22.00;99.90;;;;;;4878798;29;20055;-84
2023/05/21 10:50:26;;;;;;;15.23;9.85;;;22.00;99.90;;;;;;4870362;29;20060;-85
2023/05/21 10:53:38;;;;;;;16.20;10.82;;;22.10;99.90;;;;;;4878556;29;20127;-85
2023/05/21 10:56:33;;;;;;;16.85;10.90;;;21.90;99.90;;;;;;4879425;29;20056;-85
2023/05/21 11:02:46;;;;;;;17.33;10.35;;;21.90;99.90;;;;;;4885569;29;20127;-84
2023/05/21 11:05:14;;;;;;;18.50;11.40;;;21.90;99.90;;;;;;4886249;29;20064;-85
2023/05/21 11:08:00;;;;;;;19.38;11.07;;;22.00;99.90;;;;;;4898450;29;20378;-85
2023/05/21 11:10:44;;;;;;;17.13;11.32;;;21.90;99.90;;;;;;4897164;29;20572;-85
2023/05/21 11:13:11;;;;;;;16.08;10.27;;;21.90;99.90;;;;;;4895989;29;20150;-85
2023/05/21 11:16:00;;;;;;;17.88;12.07;;;21.90;99.90;;;;;;4898043;29;20041;-86
2023/05/21 11:18:38;;;;;;;18.55;12.00;;;22.00;99.90;;;;;;4896667;29;20313;-85
2023/05/21 11:21:11;;;;;;;17.58;11.43;;;22.10;99.90;;;;;;4896619;29;20056;-86
2023/05/21 11:24:16;;;;;;;19.63;11.50;;;22.20;99.90;;;;;;4900859;23;20056;-86
2023/05/21 11:27:05;;;;;;;17.67;11.60;;;22.40;99.90;;;;;;4897625;29;20041;-85
2023/05/21 11:30:02;;;;;;;18.95;11.05;;;22.60;99.90;;;;;;4897486;29;20091;-87
2023/05/21 11:33:17;;;;;;;17.98;11.10;;;22.70;99.90;;;;;;4896714;29;20049;-85
2023/05/21 11:36:09;;;;;;;18.60;11.65;;;23.00;99.90;;;;;;4898280;29;20067;-86
2023/05/21 11:39:32;;;;;;;18.77;11.65;;;23.10;99.90;;;;;;4898089;29;20071;-86
2023/05/21 11:42:42;;;;;;;19.65;12.07;;;23.40;99.90;;;;;;4896837;29;20120;-86
2023/05/21 11:45:09;;;;;;;20.40;12.32;;;23.60;99.90;;;;;;4896736;29;20064;-85
2023/05/21 11:47:52;;;;;;;18.88;12.27;;;23.60;99.90;;;;;;4895467;29;20057;-85
2023/05/21 11:50:32;;;;;;;17.85;11.68;;;23.90;99.90;;;;;;4897637;29;20045;-86
2023/05/21 11:53:07;;;;;;;19.60;11.98;;;23.90;99.90;;;;;;4896615;29;20055;-87
2023/05/21 11:55:42;;;;;;;18.95;12.43;;;24.10;99.90;;;;;;4895513;29;20049;-86
2023/05/21 11:58:20;;;;;;;19.35;11.95;;;24.10;99.90;;;;;;4897251;29;20055;-86
2023/05/21 12:01:01;;;;;;;20.83;12.23;;;24.10;99.90;;;;;;4896589;29;20040;-86
2023/05/21 12:03:36;;;;;;;18.77;12.23;;;24.10;99.90;;;;;;4895538;29;20100;-87
2023/05/21 12:06:19;;;;;;;20.52;12.48;;;24.20;99.90;;;;;;4897677;29;20047;-86
2023/05/21 12:08:57;;;;;;;19.48;11.77;;;24.50;99.90;;;;;;4895742;29;20052;-86
2023/05/21 12:11:22;;;;;;;18.85;12.27;;;24.60;99.90;;;;;;4897688;29;20100;-85
2023/05/21 12:14:00;;;;;;;17.83;11.25;;;24.60;99.90;;;;;;4897627;29;20040;-86
2023/05/21 12:16:37;;;;;;;17.80;12.20;;;24.70;99.90;;;;;;4895604;29;20052;-85
2023/05/21 12:19:24;;;;;;;20.33;12.18;;;24.80;99.90;;;;;;4897662;29;20068;-84
2023/05/21 12:22:36;;;;;;;21.83;13.05;;;24.70;99.90;;;;;;4895683;29;20044;-86
2023/05/21 12:25:08;;;;;;;18.90;12.80;;;24.80;99.90;;;;;;4896965;29;20060;-85
2023/05/21 12:27:56;;;;;;;18.60;12.60;;;24.90;99.90;;;;;;4897389;29;20140;-86
2023/05/21 12:31:05;;;;;;;20.35;13.07;;;24.80;99.90;;;;;;4874866;23;20091;-85
2023/05/21 12:33:34;;;;;;;20.33;13.13;;;25.00;99.90;;;;;;4859254;29;20077;-85
2023/05/21 12:36:03;;;;;;;20.65;12.63;;;24.90;99.90;;;;;;4859327;29;20060;-86
2023/05/21 12:38:52;;;;;;;18.30;13.00;;;25.00;99.90;;;;;;4859201;29;20042;-85
2023/05/21 12:44:07;;;;;;;19.05;12.85;;;25.40;99.80;;;;;;4857837;29;20053;-85
2023/05/21 12:46:49;;;;;;;19.60;11.93;;;25.30;99.80;;;;;;4858560;29;20041;-85
2023/05/21 12:53:15;;;;;;;17.20;11.68;;;25.50;99.30;;;;;;4858639;29;20049;-86
2023/05/21 12:55:41;;;;;;;18.75;12.35;;;25.60;99.60;;;;;;4861724;29;20049;-86
2023/05/21 12:58:13;;;;;;;19.20;13.05;;;25.70;99.50;;;;;;4861470;29;20109;-86
2023/05/21 13:00:44;;;;;;;19.15;11.75;;;25.60;98.90;;;;;;4862232;29;20057;-85
2023/05/21 13:03:22;;;;;;;18.95;14.13;;;25.50;99.00;;;;;;4863404;29;20406;-85
2023/05/21 13:05:58;;;;;;;20.60;13.52;;;25.50;98.90;;;;;;4863490;29;20057;-86
2023/05/21 13:08:37;;;;;;;18.92;12.60;;;25.20;98.90;;;;;;4862557;29;20058;-85
2023/05/21 13:11:23;;;;;;;16.77;11.20;;;25.40;99.40;;;;;;4862112;29;20053;-85
2023/05/21 13:14:01;;;;;;;17.48;11.88;;;25.50;99.50;;;;;;4862818;29;20042;-86
2023/05/21 13:16:35;;;;;;;18.13;11.93;;;25.50;99.30;;;;;;4861408;29;20060;-85
2023/05/21 13:19:01;;;;;;;17.95;11.93;;;25.40;99.30;;;;;;4861398;29;20061;-86
2023/05/21 13:21:42;;;;;;;16.00;11.45;;;25.30;99.30;;;;;;4862110;29;20105;-86
2023/05/21 13:24:10;;;;;;;19.67;12.65;;;25.10;99.40;;;;;;4864378;29;20056;-83
2023/05/21 13:26:50;;;;;;;17.98;12.10;;;25.10;99.70;;;;;;4856170;29;20072;-87
2023/05/21 13:30:26;;;;;;;18.83;12.00;;;25.20;99.60;;;;;;4849316;29;20066;-87
2023/05/21 13:33:30;;;;;;;18.10;12.20;;;25.40;99.60;;;;;;4842071;29;20587;-84
2023/05/21 13:36:08;;;;;;;15.32;11.15;;;25.70;99.70;;;;;;4848802;29;20443;-84
2023/05/21 13:38:34;;;;;;;17.65;11.30;;;26.10;99.70;;;;;;4850186;29;20045;-82
2023/05/21 13:41:08;;;;;;;18.05;12.07;;;26.30;99.50;;;;;;4848024;29;20102;-82
2023/05/21 13:58:09;;;;;;;21.00;12.70;;;25.70;98.90;;;;;;5481960;23;20048;-83
2023/05/21 14:00:39;;;;;;;18.15;12.35;;;25.70;99.00;;;;;;4884171;29;20103;-83
2023/05/21 14:06:34;;;;;;;19.48;11.80;;;26.30;99.00;;;;;;4800332;29;20058;-83
2023/05/21 14:08:59;;;;;;;21.05;12.73;;;26.30;99.30;;;;;;4886709;29;20500;-84